Time;durP1;ratioP1;P1;durP2;ratioP2;P2;SDS_P1;SDS_P2;PMS_P1;PMS_P2;Temp;Humidity;BMP_temperature;BMP_pressure;BME280_temperature;BME280_humidity;BME280_pressure;Samples;Min_cycle;Max_cycle;Signal;HPM_P1;HPM_P2
2023/11/20 00:01:11;;;;;;;;;;;;;;;2.61;81.47;94983.03;4975663;28;19968;-69
2023/11/20 00:03:36;;;;;;;;;;;;;;;2.58;82.68;94973.66;4976267;28;19929;-69
2023/11/20 00:06:02;;;;;;;;;;;;;;;2.95;81.57;94968.50;4975980;28;20008;-69
2023/11/20 00:08:27;;;;;;;;;;;;;;;3.00;80.43;94963.66;4976595;28;19922;-69
2023/11/20 00:10:52;;;;;;;;;;;;;;;3.12;81.07;94965.13;4975870;28;20016;-69
2023/11/20 00:13:17;;;;;;;;;;;;;;;3.25;79.20;94964.75;4973683;28;19930;-69
2023/11/20 00:15:43;;;;;;;;;;;;;;;3.20;81.64;94966.19;4975254;28;19968;-69
2023/11/20 00:18:08;;;;;;;;;;;;;;;2.89;81.31;94969.94;4977314;28;19922;-69
2023/11/20 00:20:33;;;;;;;;;;;;;;;3.25;80.88;94970.03;4980382;28;20012;-69
2023/11/20 00:22:58;;;;;;;;;;;;;;;2.67;83.74;94969.34;4978246;28;19989;-69
2023/11/20 00:25:24;;;;;;;;;;;;;;;2.90;82.68;94971.59;4978159;28;20016;-69
2023/11/20 00:27:50;;;;;;;;;;;;;;;3.25;81.59;94967.41;4978312;28;19926;-69
2023/11/20 00:30:16;;;;;;;;;;;;;;;2.90;82.89;94964.53;4978123;28;19956;-69
2023/11/20 00:32:41;;;;;;;;;;;;;;;2.84;81.53;94962.50;4978785;28;19926;-69
2023/11/20 00:35:06;;;;;;;;;;;;;;;2.86;82.78;94968.41;4976014;28;19930;-69
2023/11/20 00:37:31;;;;;;;;;;;;;;;3.11;80.79;94954.75;4981595;28;19937;-69
2023/11/20 00:39:57;;;;;;;;;;;;;;;2.69;83.56;94970.00;4976579;28;20365;-69
2023/11/20 00:42:22;;;;;;;;;;;;;;;3.02;82.01;94964.31;4978530;28;19926;-69
2023/11/20 00:44:47;;;;;;;;;;;;;;;3.12;80.15;94959.84;4974331;28;19965;-69
2023/11/20 00:47:12;;;;;;;;;;;;;;;3.12;80.60;94969.53;4980363;28;20403;-69
2023/11/20 00:49:38;;;;;;;;;;;;;;;2.81;81.29;94967.19;4973452;28;19944;-69
2023/11/20 00:52:03;;;;;;;;;;;;;;;3.26;80.68;94961.16;4981257;28;19932;-69
2023/11/20 00:54:28;;;;;;;;;;;;;;;3.35;80.52;94961.22;4975710;28;20045;-70
2023/11/20 00:56:53;;;;;;;;;;;;;;;3.03;80.18;94972.06;4979723;28;19930;-69
2023/11/20 00:59:19;;;;;;;;;;;;;;;2.53;83.41;94968.00;4976303;28;19997;-69
2023/11/20 01:01:44;;;;;;;;;;;;;;;2.56;83.47;94969.53;4980869;28;19928;-69
2023/11/20 01:04:10;;;;;;;;;;;;;;;2.46;83.71;94965.13;4981311;28;19929;-69
2023/11/20 01:06:41;;;;;;;;;;;;;;;2.10;85.98;94978.91;4978773;28;20004;-69
2023/11/20 01:09:07;;;;;;;;;;;;;;;2.79;84.35;94975.22;4974286;28;20037;-69
2023/11/20 01:11:32;;;;;;;;;;;;;;;2.64;82.81;94975.72;4980976;28;20279;-69
2023/11/20 01:14:01;;;;;;;;;;;;;;;2.98;83.31;94978.75;4981559;28;19925;-70
2023/11/20 01:16:26;;;;;;;;;;;;;;;3.53;79.80;94977.06;4975185;28;19921;-70
2023/11/20 01:18:53;;;;;;;;;;;;;;;3.47;79.87;94969.78;4978959;28;20482;-70
2023/11/20 01:21:19;;;;;;;;;;;;;;;3.07;78.49;94972.63;4979562;28;19947;-69
2023/11/20 01:23:44;;;;;;;;;;;;;;;3.37;80.18;94964.56;4976287;28;19926;-69
2023/11/20 01:26:09;;;;;;;;;;;;;;;2.77;81.00;94998.22;4979780;28;19959;-69
2023/11/20 01:28:35;;;;;;;;;;;;;;;3.32;80.11;94959.72;4976887;28;19953;-70
2023/11/20 01:31:00;;;;;;;;;;;;;;;3.36;79.56;94958.47;4974943;28;19934;-69
2023/11/20 01:33:25;;;;;;;;;;;;;;;3.34;80.14;94962.22;4979279;28;19953;-69
2023/11/20 01:35:51;;;;;;;;;;;;;;;3.39;80.58;94965.22;4977924;28;20012;-69
2023/11/20 01:38:16;;;;;;;;;;;;;;;3.98;77.50;94958.72;4979762;28;19937;-69
2023/11/20 01:40:41;;;;;;;;;;;;;;;4.00;76.66;94962.00;4979854;28;20024;-70
2023/11/20 01:43:07;;;;;;;;;;;;;;;4.26;74.35;94971.75;4976020;28;19926;-69
2023/11/20 01:45:33;;;;;;;;;;;;;;;4.21;75.47;94974.84;4980604;28;19984;-69
2023/11/20 01:47:59;;;;;;;;;;;;;;;4.02;76.44;94962.69;4974779;28;20477;-69
2023/11/20 01:50:24;;;;;;;;;;;;;;;4.23;75.43;94961.50;4979187;28;20049;-69
2023/11/20 01:52:49;;;;;;;;;;;;;;;4.25;75.26;94962.19;4979950;28;20573;-69
2023/11/20 01:55:14;;;;;;;;;;;;;;;4.01;75.55;94966.31;4977209;28;20613;-69
2023/11/20 01:57:41;;;;;;;;;;;;;;;3.41;77.69;94969.34;4977014;28;20594;-69
2023/11/20 02:00:09;;;;;;;;;;;;;;;3.80;76.90;94955.13;4974939;28;20427;-69
2023/11/20 02:02:40;;;;;;;;;;;;;;;4.22;75.22;94958.03;4977506;28;20434;-69
2023/11/20 02:05:05;;;;;;;;;;;;;;;3.79;76.11;94960.53;4974807;28;19961;-69
2023/11/20 02:07:32;;;;;;;;;;;;;;;3.42;78.40;94960.50;4970401;28;19961;-69
2023/11/20 02:09:57;;;;;;;;;;;;;;;3.54;78.61;94952.41;4976513;28;19925;-69
2023/11/20 02:12:23;;;;;;;;;;;;;;;3.26;78.47;94960.31;4975507;28;19928;-67
2023/11/20 02:14:48;;;;;;;;;;;;;;;3.60;78.00;94962.34;4977733;28;19937;-67
2023/11/20 02:17:13;;;;;;;;;;;;;;;3.63;76.88;94962.03;4976490;28;19917;-67
2023/11/20 02:19:38;;;;;;;;;;;;;;;3.89;75.15;94942.00;4980437;28;19933;-67
2023/11/20 02:22:04;;;;;;;;;;;;;;;3.20;78.04;94966.19;4977712;28;19933;-67
2023/11/20 02:24:29;;;;;;;;;;;;;;;3.24;79.54;94964.91;4979835;28;19929;-67
2023/11/20 02:27:00;;;;;;;;;;;;;;;3.35;78.35;94951.53;4977008;28;20411;-67
2023/11/20 02:29:26;;;;;;;;;;;;;;;3.22;79.28;94951.91;4976945;28;19921;-67
2023/11/20 02:31:51;;;;;;;;;;;;;;;3.48;79.14;94945.94;4975456;28;19922;-67
2023/11/20 02:34:16;;;;;;;;;;;;;;;3.69;78.20;94947.44;4977082;28;19933;-67
2023/11/20 02:36:42;;;;;;;;;;;;;;;3.76;76.92;94939.75;4977620;28;20061;-67
2023/11/20 02:39:08;;;;;;;;;;;;;;;3.47;78.13;94951.38;4975133;28;19968;-68
2023/11/20 02:41:34;;;;;;;;;;;;;;;3.57;77.97;94957.34;4977924;28;20236;-67
2023/11/20 02:43:59;;;;;;;;;;;;;;;3.39;78.25;94955.53;4978982;28;19926;-67
2023/11/20 02:46:24;;;;;;;;;;;;;;;3.67;76.68;94966.03;4979343;28;20421;-67
2023/11/20 02:48:49;;;;;;;;;;;;;;;3.70;78.28;94949.09;4979163;28;20717;-67
2023/11/20 02:51:16;;;;;;;;;;;;;;;3.94;75.58;94951.09;4978385;28;19968;-67
2023/11/20 02:53:41;;;;;;;;;;;;;;;4.00;75.62;94954.94;4979072;28;19922;-67
2023/11/20 02:56:07;;;;;;;;;;;;;;;4.07;74.62;94953.34;4970702;28;19922;-67
2023/11/20 02:58:32;;;;;;;;;;;;;;;4.50;73.36;94951.81;4978577;28;19921;-67
2023/11/20 03:00:57;;;;;;;;;;;;;;;4.02;74.68;94942.44;4978523;28;19952;-67
2023/11/20 03:03:22;;;;;;;;;;;;;;;4.30;73.88;94944.09;4973263;28;19964;-67
2023/11/20 03:05:48;;;;;;;;;;;;;;;4.09;74.04;94940.03;4977929;28;19973;-67
2023/11/20 03:08:13;;;;;;;;;;;;;;;4.59;72.21;94942.94;4978678;28;20125;-67
2023/11/20 03:10:41;;;;;;;;;;;;;;;4.47;73.05;94939.75;4978800;28;19953;-67
2023/11/20 03:13:07;;;;;;;;;;;;;;;4.77;71.47;94927.06;4979304;28;19975;-67
2023/11/20 03:15:32;;;;;;;;;;;;;;;4.52;71.16;94939.31;4978884;28;19969;-67
2023/11/20 03:17:57;;;;;;;;;;;;;;;4.50;71.83;94928.91;4978983;28;20012;-67
2023/11/20 03:20:23;;;;;;;;;;;;;;;4.50;71.85;94946.53;4977791;28;19964;-67
2023/11/20 03:22:48;;;;;;;;;;;;;;;3.96;73.21;94948.31;4978465;28;19922;-69
2023/11/20 03:25:13;;;;;;;;;;;;;;;3.45;78.15;94958.56;4977942;28;20531;-69
2023/11/20 03:27:39;;;;;;;;;;;;;;;3.39;77.70;94942.38;4978376;28;19921;-69
2023/11/20 03:30:05;;;;;;;;;;;;;;;2.90;79.73;94948.75;4978747;28;19984;-69
2023/11/20 03:32:30;;;;;;;;;;;;;;;2.31;83.69;94962.13;4980582;28;20331;-69
2023/11/20 03:34:55;;;;;;;;;;;;;;;2.18;84.41;94957.16;4976382;28;19941;-69
2023/11/20 03:37:20;;;;;;;;;;;;;;;2.16;84.04;94948.63;4976940;28;19991;-69
2023/11/20 03:39:47;;;;;;;;;;;;;;;1.90;85.61;94949.19;4978291;28;20613;-68
2023/11/20 03:42:12;;;;;;;;;;;;;;;1.50;88.11;94959.69;4975855;28;20028;-68
2023/11/20 03:44:37;;;;;;;;;;;;;;;1.58;88.13;94966.91;4974228;28;20017;-69
2023/11/20 03:47:03;;;;;;;;;;;;;;;1.87;87.75;94949.47;4975258;28;20004;-69
2023/11/20 03:49:28;;;;;;;;;;;;;;;2.20;86.01;94946.50;4974406;28;20529;-69
2023/11/20 03:51:53;;;;;;;;;;;;;;;2.62;83.00;94932.97;4973054;28;19953;-69
2023/11/20 03:54:18;;;;;;;;;;;;;;;2.64;82.81;94938.09;4977050;28;20057;-69
2023/11/20 03:56:45;;;;;;;;;;;;;;;2.77;81.93;94940.38;4978070;28;19973;-71
2023/11/20 03:59:10;;;;;;;;;;;;;;;2.76;81.82;94942.16;4977773;28;19921;-69
2023/11/20 04:01:35;;;;;;;;;;;;;;;3.45;79.25;94948.88;4975859;28;19932;-69
2023/11/20 04:04:01;;;;;;;;;;;;;;;3.37;78.46;94944.31;4977449;28;19929;-69
2023/11/20 04:06:26;;;;;;;;;;;;;;;3.71;77.48;94937.56;4972443;28;20004;-69
2023/11/20 04:08:51;;;;;;;;;;;;;;;3.41;77.10;94958.03;4970707;28;19933;-69
2023/11/20 04:11:17;;;;;;;;;;;;;;;3.12;78.99;94953.75;4969983;28;19979;-69
2023/11/20 04:13:42;;;;;;;;;;;;;;;3.21;78.89;94937.09;4971011;28;19918;-69
2023/11/20 04:16:08;;;;;;;;;;;;;;;2.70;80.47;94941.94;4973877;28;19930;-69
2023/11/20 04:18:33;;;;;;;;;;;;;;;2.60;80.71;94945.44;4972543;28;19997;-69
2023/11/20 04:20:58;;;;;;;;;;;;;;;2.29;82.21;94961.44;4977891;28;19925;-69
2023/11/20 04:23:23;;;;;;;;;;;;;;;2.11;83.28;94953.47;4976690;28;20266;-69
2023/11/20 04:25:49;;;;;;;;;;;;;;;2.28;83.41;94954.50;4978245;28;20711;-69
2023/11/20 04:28:14;;;;;;;;;;;;;;;2.65;82.71;94940.56;4977203;28;19929;-69
2023/11/20 04:30:39;;;;;;;;;;;;;;;2.75;81.46;94947.56;4977662;28;19988;-69
2023/11/20 04:33:05;;;;;;;;;;;;;;;2.32;81.59;94942.78;4976841;28;19952;-66
2023/11/20 04:35:30;;;;;;;;;;;;;;;1.26;87.45;94957.44;4977912;28;19937;-66
2023/11/20 04:37:55;;;;;;;;;;;;;;;1.46;87.84;94960.94;4976043;28;19991;-67
2023/11/20 04:40:20;;;;;;;;;;;;;;;1.37;88.87;94957.31;4977627;28;20303;-67
2023/11/20 04:42:46;;;;;;;;;;;;;;;2.05;85.64;94962.75;4973181;28;19922;-66
2023/11/20 04:45:12;;;;;;;;;;;;;;;2.36;84.00;94948.56;4978163;28;20265;-67
2023/11/20 04:47:37;;;;;;;;;;;;;;;2.39;83.58;94950.91;4971871;28;20398;-67
2023/11/20 04:50:03;;;;;;;;;;;;;;;2.97;80.22;94949.00;4977457;28;19925;-67
2023/11/20 04:52:29;;;;;;;;;;;;;;;2.37;82.29;94950.22;4976568;28;19929;-67
2023/11/20 04:54:55;;;;;;;;;;;;;;;2.74;80.89;94945.94;4973571;28;19934;-67
2023/11/20 04:57:20;;;;;;;;;;;;;;;3.23;78.28;94942.22;4975388;28;19936;-67
2023/11/20 04:59:45;;;;;;;;;;;;;;;2.64;80.93;94938.91;4974353;28;20373;-67
2023/11/20 05:02:10;;;;;;;;;;;;;;;2.97;79.56;94943.75;4973370;28;20057;-66
2023/11/20 05:04:36;;;;;;;;;;;;;;;2.78;80.51;94953.38;4977098;28;19925;-67
2023/11/20 05:07:01;;;;;;;;;;;;;;;3.29;78.79;94933.72;4978126;28;20421;-67
2023/11/20 05:09:26;;;;;;;;;;;;;;;3.59;77.11;94944.06;4972843;28;20316;-68
2023/11/20 05:11:51;;;;;;;;;;;;;;;4.03;74.90;94938.84;4979921;28;19929;-67
2023/11/20 05:14:17;;;;;;;;;;;;;;;3.50;76.74;94937.91;4976872;28;19926;-68
2023/11/20 05:16:43;;;;;;;;;;;;;;;3.28;77.03;94934.69;4979737;28;19925;-67
2023/11/20 05:19:08;;;;;;;;;;;;;;;4.12;74.76;94931.78;4976050;28;20517;-67
2023/11/20 05:21:34;;;;;;;;;;;;;;;3.86;74.45;94932.63;4980224;28;19925;-67
2023/11/20 05:23:59;;;;;;;;;;;;;;;3.32;77.55;94943.94;4980901;28;19922;-67
2023/11/20 05:26:24;;;;;;;;;;;;;;;2.58;82.10;94952.63;4980410;28;20440;-67
2023/11/20 05:28:54;;;;;;;;;;;;;;;2.52;83.70;94942.72;4980049;28;19951;-67
2023/11/20 05:31:19;;;;;;;;;;;;;;;2.47;84.22;94950.19;4980102;28;19926;-67
2023/11/20 05:33:45;;;;;;;;;;;;;;;2.23;85.58;94954.97;4981371;28;19934;-67
2023/11/20 05:36:10;;;;;;;;;;;;;;;2.45;84.77;94946.88;4980093;28;19933;-67
2023/11/20 05:38:35;;;;;;;;;;;;;;;3.45;82.80;94948.03;4980046;28;19930;-67
2023/11/20 05:41:00;;;;;;;;;;;;;;;3.38;78.55;94948.63;4980581;28;19922;-67
2023/11/20 05:43:26;;;;;;;;;;;;;;;3.09;79.41;94965.41;4979178;28;19929;-69
2023/11/20 05:45:51;;;;;;;;;;;;;;;3.16;79.57;94944.59;4978899;28;19925;-69
2023/11/20 05:48:16;;;;;;;;;;;;;;;2.85;82.11;94952.78;4976479;28;19964;-69
2023/11/20 05:50:41;;;;;;;;;;;;;;;2.24;84.33;94959.22;4973481;28;20069;-69
2023/11/20 05:53:06;;;;;;;;;;;;;;;2.46;83.56;94949.38;4977700;28;19957;-69
2023/11/20 05:55:32;;;;;;;;;;;;;;;2.42;82.95;94955.03;4977182;28;19999;-69
2023/11/20 05:58:00;;;;;;;;;;;;;;;2.24;82.98;94961.03;4980353;28;20614;-69
2023/11/20 06:00:26;;;;;;;;;;;;;;;2.96;81.36;94942.06;4974024;28;19933;-69
2023/11/20 06:02:52;;;;;;;;;;;;;;;3.09;79.51;94952.25;4979361;28;20007;-69
2023/11/20 06:05:17;;;;;;;;;;;;;;;3.31;78.88;94947.56;4975647;28;19925;-70
2023/11/20 06:07:42;;;;;;;;;;;;;;;3.89;75.32;94949.91;4979817;28;19926;-71
2023/11/20 06:10:08;;;;;;;;;;;;;;;3.26;77.56;94949.78;4980458;28;20435;-70
2023/11/20 06:12:34;;;;;;;;;;;;;;;2.96;79.02;94951.78;4974808;28;20000;-69
2023/11/20 06:15:00;;;;;;;;;;;;;;;3.50;77.06;94940.53;4970188;28;20017;-69
2023/11/20 06:17:25;;;;;;;;;;;;;;;3.55;75.29;94952.25;4980233;28;19930;-70
2023/11/20 06:19:51;;;;;;;;;;;;;;;3.79;75.83;94942.94;4979698;28;19936;-70
2023/11/20 06:22:16;;;;;;;;;;;;;;;3.79;74.91;94936.84;4980040;28;19948;-70
2023/11/20 06:24:42;;;;;;;;;;;;;;;4.00;74.77;94941.78;4979335;28;19921;-70
2023/11/20 06:27:08;;;;;;;;;;;;;;;3.84;75.80;94946.91;4978861;28;19933;-70
2023/11/20 06:29:33;;;;;;;;;;;;;;;3.63;74.02;94946.25;4979515;28;19926;-70
2023/11/20 06:31:59;;;;;;;;;;;;;;;3.60;76.17;94941.28;4979642;28;19926;-69
2023/11/20 06:34:24;;;;;;;;;;;;;;;3.35;77.06;94942.81;4977144;28;20303;-69
2023/11/20 06:36:49;;;;;;;;;;;;;;;2.53;79.62;94939.91;4976521;28;19925;-69
2023/11/20 06:39:14;;;;;;;;;;;;;;;2.74;80.05;94941.50;4979080;28;19936;-69
2023/11/20 06:41:42;;;;;;;;;;;;;;;3.13;78.12;94945.72;4979178;28;19996;-70
2023/11/20 06:44:07;;;;;;;;;;;;;;;3.30;77.08;94948.50;4974870;28;19930;-69
2023/11/20 06:46:32;;;;;;;;;;;;;;;3.19;77.83;94944.28;4984983;28;20191;-69
2023/11/20 06:48:58;;;;;;;;;;;;;;;2.65;79.59;94948.47;4986862;28;19930;-69
2023/11/20 06:51:23;;;;;;;;;;;;;;;2.24;82.02;94956.59;4983793;28;20000;-69
2023/11/20 06:53:49;;;;;;;;;;;;;;;2.41;81.78;94958.66;4983883;28;20040;-68
2023/11/20 06:56:17;;;;;;;;;;;;;;;2.54;80.28;94967.03;4982267;28;19929;-69
2023/11/20 06:58:43;;;;;;;;;;;;;;;2.19;81.72;94958.84;4985114;28;19973;-69
2023/11/20 07:01:08;;;;;;;;;;;;;;;2.36;81.00;94970.41;4984224;28;20632;-69
2023/11/20 07:03:33;;;;;;;;;;;;;;;1.96;82.83;94958.31;4985098;28;20565;-69
2023/11/20 07:05:59;;;;;;;;;;;;;;;2.26;81.76;94967.81;4985651;28;20344;-69
2023/11/20 07:08:26;;;;;;;;;;;;;;;2.21;82.12;94967.38;4983375;28;19925;-69
2023/11/20 07:10:52;;;;;;;;;;;;;;;2.34;81.84;94974.13;4985432;28;20428;-69
2023/11/20 07:13:17;;;;;;;;;;;;;;;1.52;84.60;94983.16;4987563;28;19929;-69
2023/11/20 07:15:42;;;;;;;;;;;;;;;1.79;83.57;94979.06;4983979;28;19993;-69
2023/11/20 07:18:10;;;;;;;;;;;;;;;1.88;82.82;94978.22;4986722;28;19926;-69
2023/11/20 07:20:36;;;;;;;;;;;;;;;2.04;82.27;94979.44;4982153;28;19936;-69
2023/11/20 07:23:04;;;;;;;;;;;;;;;1.79;83.62;94981.69;4984793;28;20012;-70
2023/11/20 07:25:33;;;;;;;;;;;;;;;1.77;82.56;94993.28;4983859;28;19928;-69
2023/11/20 07:27:59;;;;;;;;;;;;;;;2.21;81.45;94982.34;4984362;28;19938;-70
2023/11/20 07:30:24;;;;;;;;;;;;;;;1.77;81.66;94980.97;4982314;28;19922;-69
2023/11/20 07:32:49;;;;;;;;;;;;;;;2.10;81.53;94983.31;4977987;28;19926;-70
2023/11/20 07:35:15;;;;;;;;;;;;;;;2.22;80.89;94994.50;4979015;28;19996;-69
2023/11/20 07:37:41;;;;;;;;;;;;;;;1.87;82.30;94996.72;4983049;28;20398;-69
2023/11/20 07:40:10;;;;;;;;;;;;;;;1.93;81.96;94998.81;4978228;28;19971;-69
2023/11/20 07:42:36;;;;;;;;;;;;;;;1.66;82.59;95000.31;4978391;28;19977;-69
2023/11/20 07:45:01;;;;;;;;;;;;;;;1.85;81.47;95011.81;4985147;28;19929;-70
2023/11/20 07:47:26;;;;;;;;;;;;;;;1.27;84.98;95008.94;4982110;28;20019;-69
2023/11/20 07:49:51;;;;;;;;;;;;;;;1.17;84.41;95021.19;4983684;28;19976;-69
2023/11/20 07:52:17;;;;;;;;;;;;;;;0.97;84.96;95021.13;4984162;28;19961;-69
2023/11/20 07:54:43;;;;;;;;;;;;;;;0.78;86.26;95016.66;4982676;28;19973;-69
2023/11/20 07:57:11;;;;;;;;;;;;;;;0.84;87.04;95010.88;4983179;28;19943;-69
2023/11/20 07:59:36;;;;;;;;;;;;;;;1.02;85.83;95008.47;4982878;28;19926;-69
2023/11/20 08:02:02;;;;;;;;;;;;;;;0.70;85.63;95004.19;4983584;28;19929;-69
2023/11/20 08:04:27;;;;;;;;;;;;;;;0.56;87.21;95011.47;4982421;28;19984;-69
2023/11/20 08:06:52;;;;;;;;;;;;;;;0.77;86.39;95015.81;4983691;28;19925;-69
2023/11/20 08:09:17;;;;;;;;;;;;;;;1.20;84.72;95011.25;4982548;28;20048;-70
2023/11/20 08:11:44;;;;;;;;;;;;;;;1.36;84.47;95007.28;4982515;28;20004;-70
2023/11/20 08:14:09;;;;;;;;;;;;;;;1.72;81.61;95018.16;4983116;28;19976;-70
2023/11/20 08:16:34;;;;;;;;;;;;;;;1.98;80.45;95016.78;4983786;28;19925;-69
2023/11/20 08:19:02;;;;;;;;;;;;;;;2.06;80.00;95018.69;4984893;28;19929;-69
2023/11/20 08:21:27;;;;;;;;;;;;;;;1.97;80.23;95022.97;4983719;28;20012;-69
2023/11/20 08:23:53;;;;;;;;;;;;;;;2.44;78.37;95029.28;4982782;28;20071;-69
2023/11/20 08:26:18;;;;;;;;;;;;;;;2.44;79.80;95029.28;4979245;28;19921;-69
2023/11/20 08:28:43;;;;;;;;;;;;;;;2.33;79.11;95028.50;4978446;28;19933;-69
2023/11/20 08:31:08;;;;;;;;;;;;;;;2.56;79.47;95038.69;4981262;28;19930;-69
2023/11/20 08:33:34;;;;;;;;;;;;;;;2.48;78.95;95035.91;4984527;28;19929;-71
2023/11/20 08:35:59;;;;;;;;;;;;;;;3.10;76.04;95030.19;4984354;28;19933;-70
2023/11/20 08:38:24;;;;;;;;;;;;;;;2.94;76.29;95030.81;4986011;28;21049;-70
2023/11/20 08:40:50;;;;;;;;;;;;;;;3.07;74.71;95019.13;4986751;28;20407;-70
2023/11/20 08:43:15;;;;;;;;;;;;;;;3.22;73.77;95022.09;4991669;28;19930;-70
2023/11/20 08:45:41;;;;;;;;;;;;;;;3.11;73.66;95029.22;4987560;28;19935;-70
2023/11/20 08:48:06;;;;;;;;;;;;;;;3.55;73.46;95030.41;4985908;28;20401;-69
2023/11/20 08:50:31;;;;;;;;;;;;;;;3.53;72.47;95032.34;4989469;28;19926;-69
2023/11/20 08:52:56;;;;;;;;;;;;;;;3.47;73.07;95030.31;4985340;28;20311;-70
2023/11/20 08:55:23;;;;;;;;;;;;;;;4.02;71.76;95031.19;4987055;28;19956;-71
2023/11/20 08:57:48;;;;;;;;;;;;;;;3.39;72.21;95023.13;4988640;28;20006;-71
2023/11/20 09:00:14;;;;;;;;;;;;;;;3.64;71.71;95018.16;4988353;28;19936;-70
2023/11/20 09:02:43;;;;;;;;;;;;;;;3.89;71.46;95019.22;4985108;28;19926;-71
2023/11/20 09:05:17;;;;;;;;;;;;;;;3.10;72.56;95021.47;4984203;28;19929;-70
2023/11/20 09:07:43;;;;;;;;;;;;;;;3.03;73.19;95023.88;4986879;28;20040;-72
2023/11/20 09:10:12;;;;;;;;;;;;;;;3.44;72.05;95018.25;4988441;28;20036;-70
2023/11/20 09:12:37;;;;;;;;;;;;;;;3.01;73.94;95017.91;4984962;28;20008;-70
2023/11/20 09:15:04;;;;;;;;;;;;;;;3.80;72.30;95012.22;4985592;28;19940;-68
2023/11/20 09:17:30;;;;;;;;;;;;;;;3.68;71.85;95011.63;4986804;28;20282;-67
2023/11/20 09:19:56;;;;;;;;;;;;;;;4.15;70.79;95010.53;4985926;28;19930;-67
2023/11/20 09:22:21;;;;;;;;;;;;;;;4.58;68.45;95007.22;4980691;28;20479;-67
2023/11/20 09:24:46;;;;;;;;;;;;;;;3.91;69.59;95009.34;4979459;28;19952;-67
2023/11/20 09:27:13;;;;;;;;;;;;;;;4.37;67.95;95016.31;4983948;28;19937;-67
2023/11/20 09:29:39;;;;;;;;;;;;;;;4.58;69.08;95018.59;4980002;28;19961;-68
2023/11/20 09:32:05;;;;;;;;;;;;;;;4.89;68.28;95021.72;4988854;28;20041;-67
2023/11/20 09:34:30;;;;;;;;;;;;;;;4.84;68.03;95009.81;4979850;28;19968;-67
2023/11/20 09:36:56;;;;;;;;;;;;;;;4.51;68.04;95022.00;4977910;28;20677;-67
2023/11/20 09:39:21;;;;;;;;;;;;;;;4.84;67.74;95011.66;4984366;28;20675;-67
2023/11/20 09:41:46;;;;;;;;;;;;;;;4.85;66.04;95015.94;4978456;28;19953;-67
2023/11/20 09:44:12;;;;;;;;;;;;;;;4.87;66.87;95008.72;4982393;28;19929;-67
2023/11/20 09:46:40;;;;;;;;;;;;;;;4.74;67.08;95010.94;4985928;28;19965;-68
2023/11/20 09:49:05;;;;;;;;;;;;;;;4.69;67.37;95017.50;4987349;28;19922;-67
2023/11/20 09:51:31;;;;;;;;;;;;;;;4.71;67.48;95012.06;4979882;28;20255;-68
2023/11/20 09:53:56;;;;;;;;;;;;;;;4.31;67.34;95011.63;4979788;28;20326;-68
2023/11/20 09:56:21;;;;;;;;;;;;;;;4.88;67.42;95007.72;4976112;28;19925;-67
2023/11/20 09:58:46;;;;;;;;;;;;;;;5.41;64.69;95001.53;4977413;28;19922;-67
2023/11/20 10:01:13;;;;;;;;;;;;;;;5.27;65.08;94997.69;4979072;28;19972;-68
2023/11/20 10:03:39;;;;;;;;;;;;;;;5.32;64.77;94993.59;4982448;28;21537;-67
2023/11/20 10:06:08;;;;;;;;;;;;;;;5.67;63.81;94992.66;4978950;28;19925;-67
2023/11/20 10:08:35;;;;;;;;;;;;;;;5.82;62.42;94998.16;4979211;28;20134;-67
2023/11/20 10:11:01;;;;;;;;;;;;;;;5.86;62.68;94999.47;4982309;28;19947;-68
2023/11/20 10:13:26;;;;;;;;;;;;;;;5.50;64.29;94992.63;4985460;28;20379;-68
2023/11/20 10:15:53;;;;;;;;;;;;;;;5.55;64.60;94992.97;4983005;28;20366;-67
2023/11/20 10:18:18;;;;;;;;;;;;;;;5.91;62.71;94991.06;4982761;28;19921;-68
2023/11/20 10:20:52;;;;;;;;;;;;;;;6.38;60.98;94990.38;4978266;28;19965;-67
2023/11/20 10:23:18;;;;;;;;;;;;;;;5.30;62.93;94998.19;4982753;28;19972;-67
2023/11/20 10:25:46;;;;;;;;;;;;;;;5.91;60.74;94997.16;4983163;28;20520;-71
2023/11/20 10:28:13;;;;;;;;;;;;;;;5.86;62.86;94981.78;4975789;28;19949;-70
2023/11/20 10:30:40;;;;;;;;;;;;;;;5.98;63.54;94971.72;4976303;28;19929;-70
2023/11/20 10:33:05;;;;;;;;;;;;;;;6.47;60.23;94964.75;4977588;28;19967;-70
2023/11/20 10:35:31;;;;;;;;;;;;;;;6.74;59.68;94970.66;4975265;28;19933;-71
2023/11/20 10:38:03;;;;;;;;;;;;;;;5.93;62.53;94962.66;4974593;28;19972;-70
2023/11/20 10:40:28;;;;;;;;;;;;;;;6.50;58.99;94956.50;4978484;28;20807;-70
2023/11/20 10:42:53;;;;;;;;;;;;;;;5.64;60.14;94959.47;4976505;28;19926;-70
2023/11/20 10:45:25;;;;;;;;;;;;;;;5.55;62.05;94960.47;4973373;28;19949;-70
2023/11/20 10:47:51;;;;;;;;;;;;;;;5.08;63.24;94966.13;4982484;28;19926;-70
2023/11/20 10:50:17;;;;;;;;;;;;;;;4.88;63.02;94954.13;4985487;28;19934;-70
2023/11/20 10:52:42;;;;;;;;;;;;;;;5.16;63.32;94959.19;4977876;28;20300;-71
2023/11/20 10:55:10;;;;;;;;;;;;;;;4.25;65.66;94960.38;4978569;28;19936;-70
2023/11/20 10:57:35;;;;;;;;;;;;;;;4.84;63.83;94946.53;4976342;28;19922;-70
2023/11/20 11:00:10;;;;;;;;;;;;;;;5.33;63.23;94945.06;4977946;28;19922;-71
2023/11/20 11:02:38;;;;;;;;;;;;;;;4.69;63.92;94951.56;4978066;28;19998;-70
2023/11/20 11:05:06;;;;;;;;;;;;;;;5.45;62.75;94942.94;4982767;28;20486;-71
2023/11/20 11:07:32;;;;;;;;;;;;;;;5.66;62.30;94946.13;4980698;28;19936;-70
2023/11/20 11:09:59;;;;;;;;;;;;;;;6.03;60.54;94939.53;4978765;28;19921;-70
2023/11/20 11:12:25;;;;;;;;;;;;;;;5.39;62.05;94940.97;4982146;28;19941;-70
2023/11/20 11:14:50;;;;;;;;;;;;;;;5.20;63.21;94926.22;4981946;28;19981;-70
2023/11/20 11:17:17;;;;;;;;;;;;;;;5.45;61.77;94935.00;4982461;28;20298;-70
2023/11/20 11:19:46;;;;;;;;;;;;;;;6.12;61.03;94924.47;4984117;28;19926;-70
2023/11/20 11:22:13;;;;;;;;;;;;;;;5.69;63.27;94924.66;4982254;28;19925;-70
2023/11/20 11:24:38;;;;;;;;;;;;;;;6.20;60.14;94926.28;4982925;28;19985;-71
2023/11/20 11:27:04;;;;;;;;;;;;;;;5.98;60.95;94924.16;4982817;28;19930;-70
2023/11/20 11:29:38;;;;;;;;;;;;;;;5.71;61.39;94928.78;4984790;28;20398;-71
2023/11/20 11:32:06;;;;;;;;;;;;;;;5.42;63.81;94908.13;4981302;28;19985;-70
2023/11/20 11:34:31;;;;;;;;;;;;;;;5.60;62.55;94906.19;4987103;28;19956;-71
2023/11/20 11:37:01;;;;;;;;;;;;;;;5.63;62.51;94922.66;4981663;28;20140;-70
2023/11/20 11:39:27;;;;;;;;;;;;;;;5.11;64.61;94903.44;4983493;28;19930;-71
2023/11/20 11:41:53;;;;;;;;;;;;;;;5.34;64.77;94895.75;4981039;28;19982;-71
2023/11/20 11:44:35;;;;;;;;;;;;;;;6.15;63.25;94892.44;4985135;28;19992;-71
2023/11/20 11:47:08;;;;;;;;;;;;;;;6.14;62.10;94890.78;4984025;28;20177;-71
2023/11/20 11:49:34;;;;;;;;;;;;;;;6.15;60.79;94892.44;4984812;28;20481;-71
2023/11/20 11:52:08;;;;;;;;;;;;;;;6.37;60.09;94898.00;4985215;28;19926;-71
2023/11/20 11:54:33;;;;;;;;;;;;;;;6.16;62.73;94887.97;4982656;28;19930;-71
2023/11/20 11:57:00;;;;;;;;;;;;;;;6.94;59.44;94863.59;4983067;28;19925;-71
2023/11/20 11:59:42;;;;;;;;;;;;;;;7.19;58.55;94869.59;4982341;28;20309;-71
2023/11/20 12:02:08;;;;;;;;;;;;;;;7.37;58.65;94861.34;4983028;28;20041;-71
2023/11/20 12:04:48;;;;;;;;;;;;;;;7.37;58.18;94868.47;4983478;28;20020;-71
2023/11/20 12:07:13;;;;;;;;;;;;;;;6.92;60.48;94871.72;4981664;28;20562;-71
2023/11/20 12:09:59;;;;;;;;;;;;;;;6.18;60.56;94870.94;4983309;28;19928;-71
2023/11/20 12:12:43;;;;;;;;;;;;;;;5.91;61.43;94870.34;4977415;28;20002;-71
2023/11/20 12:15:27;;;;;;;;;;;;;;;6.12;61.04;94867.16;4982430;28;19941;-71
2023/11/20 12:17:55;;;;;;;;;;;;;;;4.96;64.36;94870.56;4983534;28;19960;-71
2023/11/20 12:20:20;;;;;;;;;;;;;;;6.52;61.11;94860.31;4981430;28;19952;-71
2023/11/20 12:22:49;;;;;;;;;;;;;;;6.52;60.27;94860.31;4980153;28;19925;-71
2023/11/20 12:25:16;;;;;;;;;;;;;;;6.18;61.94;94863.03;4984917;28;19918;-71
2023/11/20 12:27:41;;;;;;;;;;;;;;;5.68;63.72;94860.44;4983487;28;20020;-71
2023/11/20 12:30:07;;;;;;;;;;;;;;;4.44;68.02;94859.19;4980501;28;20013;-71
2023/11/20 12:32:33;;;;;;;;;;;;;;;4.44;68.63;94853.09;4976715;28;20016;-71
2023/11/20 12:34:58;;;;;;;;;;;;;;;5.25;67.30;94854.50;4977927;28;21086;-71
2023/11/20 12:37:23;;;;;;;;;;;;;;;5.71;65.52;94857.47;4977905;28;20446;-71
2023/11/20 12:39:48;;;;;;;;;;;;;;;5.25;65.86;94849.22;4975782;28;19930;-71
2023/11/20 12:42:16;;;;;;;;;;;;;;;4.71;66.78;94848.56;4977102;28;19922;-71
2023/11/20 12:44:42;;;;;;;;;;;;;;;4.82;68.07;94844.81;4984906;28;20380;-71
2023/11/20 12:47:07;;;;;;;;;;;;;;;4.15;69.54;94841.09;4974199;28;19941;-72
2023/11/20 12:49:32;;;;;;;;;;;;;;;4.09;70.80;94832.00;4981085;28;19933;-72
2023/11/20 12:51:58;;;;;;;;;;;;;;;4.80;67.63;94834.41;4979005;28;20497;-72